createdAt,value
2023-04-30T00:00:47.056Z,52.67
2023-04-30T00:03:17.533Z,52.40
2023-04-30T00:05:46.301Z,52.20
2023-04-30T00:08:14.935Z,52.27
2023-04-30T00:10:43.800Z,51.94
2023-04-30T00:13:14.079Z,52.23
2023-04-30T00:15:42.813Z,52.21
2023-04-30T00:18:11.947Z,52.79
2023-04-30T00:20:42.107Z,52.42
2023-04-30T00:23:11.029Z,52.78
2023-04-30T00:25:39.720Z,53.39
2023-04-30T00:28:08.407Z,53.06
2023-04-30T00:30:37.360Z,53.69
2023-04-30T00:33:06.100Z,54.16
2023-04-30T00:35:34.726Z,54.19
2023-04-30T00:38:05.127Z,53.90
2023-04-30T00:40:35.577Z,53.63
2023-04-30T00:43:04.800Z,53.49
2023-04-30T00:45:33.503Z,54.39
2023-04-30T00:48:02.434Z,53.86
2023-04-30T00:50:31.369Z,53.61
2023-04-30T00:53:00.214Z,54.06
2023-04-30T00:55:30.233Z,54.69
2023-04-30T00:57:59.750Z,54.06
2023-04-30T01:00:28.824Z,54.37
2023-04-30T01:02:57.658Z,54.56
2023-04-30T01:05:26.774Z,55.03
2023-04-30T01:07:56.404Z,54.75
2023-04-30T01:10:31.663Z,54.85
2023-04-30T01:13:06.595Z,54.95
2023-04-30T01:15:46.089Z,54.73
2023-04-30T01:18:17.828Z,54.79
2023-04-30T01:20:52.030Z,54.94
2023-04-30T01:23:29.713Z,54.67
2023-04-30T01:26:13.211Z,54.25
2023-04-30T01:28:45.091Z,55.01
2023-04-30T01:31:18.222Z,54.64
2023-04-30T01:33:47.739Z,54.68
2023-04-30T01:36:42.974Z,55.29
2023-04-30T01:39:22.268Z,55.39
2023-04-30T01:41:58.818Z,55.09
2023-04-30T01:44:42.505Z,55.22
2023-04-30T01:47:17.129Z,55.70
2023-04-30T01:49:59.279Z,55.42
2023-04-30T01:52:33.904Z,56.09
2023-04-30T01:55:08.490Z,55.98
2023-04-30T01:57:42.430Z,55.97
2023-04-30T02:00:17.457Z,56.23
2023-04-30T02:02:46.466Z,57.04
2023-04-30T02:05:15.152Z,56.52
2023-04-30T02:07:45.059Z,56.80
2023-04-30T02:10:14.391Z,57.54
2023-04-30T02:12:43.273Z,57.20
2023-04-30T02:15:13.665Z,57.14
2023-04-30T02:17:42.864Z,57.73
2023-04-30T02:20:12.276Z,58.28
2023-04-30T02:22:40.937Z,57.34
2023-04-30T02:25:12.449Z,56.96
2023-04-30T02:27:41.451Z,57.57
2023-04-30T02:30:13.150Z,57.02
2023-04-30T02:32:41.917Z,57.21
2023-04-30T02:35:11.427Z,58.32
2023-04-30T02:37:40.067Z,57.60
2023-04-30T02:40:09.879Z,57.25
2023-04-30T02:42:38.978Z,57.86
2023-04-30T02:45:08.596Z,57.68
2023-04-30T02:47:38.652Z,57.68
2023-04-30T02:50:10.584Z,57.16
2023-04-30T02:52:39.401Z,57.04
2023-04-30T02:55:09.418Z,58.41
2023-04-30T02:57:38.033Z,58.93
2023-04-30T03:00:08.658Z,58.75
2023-04-30T03:02:39.628Z,58.91
2023-04-30T03:05:09.006Z,59.37
2023-04-30T03:07:38.139Z,59.54
2023-04-30T03:10:08.191Z,59.64
2023-04-30T03:12:36.898Z,59.48
2023-04-30T03:15:07.154Z,59.21
2023-04-30T03:17:35.803Z,60.34
2023-04-30T03:20:07.317Z,60.80
2023-04-30T03:22:36.306Z,61.71
2023-04-30T03:25:05.363Z,61.41
2023-04-30T03:27:34.008Z,62.33
2023-04-30T03:30:02.934Z,62.83
2023-04-30T03:32:32.420Z,63.28
2023-04-30T03:35:01.259Z,63.44
2023-04-30T03:37:32.108Z,64.40
2023-04-30T03:40:00.954Z,63.73
2023-04-30T03:42:29.853Z,63.95
2023-04-30T03:44:58.577Z,64.15
2023-04-30T03:47:27.212Z,63.49
2023-04-30T03:49:56.419Z,63.80
2023-04-30T03:52:26.603Z,63.96
2023-04-30T03:54:56.882Z,64.31
2023-04-30T03:57:25.882Z,64.90
2023-04-30T03:59:54.837Z,65.43
2023-04-30T04:02:23.836Z,66.46
2023-04-30T04:04:53.246Z,66.48
2023-04-30T04:07:21.954Z,66.67
2023-04-30T04:09:50.766Z,67.46
2023-04-30T04:12:21.144Z,68.00
2023-04-30T04:14:49.810Z,69.15
2023-04-30T04:17:19.980Z,69.92
2023-04-30T04:19:49.222Z,69.12
2023-04-30T04:22:17.974Z,69.57
2023-04-30T04:24:47.913Z,69.53
2023-04-30T04:27:17.038Z,70.71
2023-04-30T04:29:47.287Z,70.71
2023-04-30T04:32:16.250Z,69.49
2023-04-30T04:34:45.898Z,69.55
2023-04-30T04:37:15.627Z,69.75
2023-04-30T04:39:45.116Z,70.50
2023-04-30T04:42:14.905Z,70.88
2023-04-30T04:44:43.948Z,70.62
2023-04-30T04:47:14.183Z,72.01
2023-04-30T04:49:43.044Z,73.34
2023-04-30T04:52:12.095Z,72.76
2023-04-30T04:54:41.118Z,74.36
2023-04-30T04:57:10.168Z,74.58
2023-04-30T04:59:38.865Z,74.24
2023-04-30T05:02:07.568Z,75.12
2023-04-30T05:04:38.014Z,74.53
2023-04-30T05:07:08.109Z,71.87
2023-04-30T05:09:37.213Z,70.36
2023-04-30T05:12:06.578Z,68.51
2023-04-30T05:14:35.758Z,66.39
2023-04-30T05:17:04.805Z,63.48
2023-04-30T05:19:33.652Z,63.40
2023-04-30T05:22:04.301Z,63.19
2023-04-30T05:24:33.496Z,63.63
2023-04-30T05:27:03.019Z,63.57
2023-04-30T05:29:31.776Z,64.13
2023-04-30T05:32:00.820Z,64.37
2023-04-30T05:34:29.657Z,64.76
2023-04-30T05:36:58.320Z,63.78
2023-04-30T05:39:28.680Z,64.11
2023-04-30T05:41:57.408Z,63.88
2023-04-30T05:44:26.058Z,63.11
2023-04-30T05:46:57.636Z,63.17
2023-04-30T05:49:26.470Z,63.54
2023-04-30T05:51:55.453Z,62.29
2023-04-30T05:54:24.192Z,62.16
2023-04-30T05:56:54.179Z,62.19
2023-04-30T05:59:23.121Z,64.14
2023-04-30T06:01:51.923Z,64.87
2023-04-30T06:04:21.058Z,66.22
2023-04-30T06:06:49.729Z,66.38
2023-04-30T06:09:18.468Z,66.82
2023-04-30T06:11:50.400Z,67.63
2023-04-30T06:14:22.813Z,67.25
2023-04-30T06:16:51.948Z,67.86
2023-04-30T06:19:20.942Z,67.82
2023-04-30T06:21:49.653Z,66.89
2023-04-30T06:24:18.611Z,67.31
2023-04-30T06:26:47.327Z,67.50
2023-04-30T06:29:15.993Z,67.52
2023-04-30T06:31:46.523Z,67.56
2023-04-30T06:34:15.289Z,68.19
2023-04-30T06:36:43.975Z,66.75
2023-04-30T06:39:15.412Z,66.88
2023-04-30T06:41:44.134Z,66.93
2023-04-30T06:44:13.077Z,66.70
2023-04-30T06:46:42.038Z,66.29
2023-04-30T06:49:12.214Z,66.04
2023-04-30T06:51:42.541Z,66.22
2023-04-30T06:54:11.242Z,65.46
2023-04-30T06:56:39.856Z,65.56
2023-04-30T06:59:08.766Z,65.48
2023-04-30T07:04:44.853Z,65.09
2023-04-30T07:07:13.560Z,64.50
2023-04-30T07:09:42.420Z,64.19
2023-04-30T07:12:13.694Z,64.14
2023-04-30T07:14:42.506Z,64.37
2023-04-30T07:17:11.546Z,63.51
2023-04-30T07:19:40.165Z,62.95
2023-04-30T07:22:10.189Z,62.84
2023-04-30T07:24:39.157Z,62.71
2023-04-30T07:27:07.797Z,63.43
2023-04-30T07:29:37.349Z,63.40
2023-04-30T07:32:06.846Z,62.16
2023-04-30T07:34:35.510Z,61.82
2023-04-30T07:37:04.282Z,61.05
2023-04-30T07:39:34.545Z,60.39
2023-04-30T07:42:04.106Z,60.65
2023-04-30T07:44:33.113Z,58.75
2023-04-30T07:47:01.789Z,58.28
2023-04-30T07:49:30.525Z,58.31
2023-04-30T07:52:00.987Z,57.89
2023-04-30T07:54:29.677Z,57.85
2023-04-30T07:57:00.072Z,56.41
2023-04-30T07:59:29.076Z,56.16
2023-04-30T08:01:57.751Z,56.40
2023-04-30T08:04:26.960Z,56.49
2023-04-30T08:06:55.612Z,56.03
2023-04-30T08:09:24.284Z,56.90
2023-04-30T08:11:53.240Z,56.56
2023-04-30T08:14:23.648Z,55.95
2023-04-30T08:16:52.493Z,54.58
2023-04-30T08:19:21.432Z,54.91
2023-04-30T08:21:50.116Z,53.17
2023-04-30T08:24:18.756Z,53.26
2023-04-30T08:26:47.863Z,53.14
2023-04-30T08:29:16.531Z,52.88
2023-04-30T08:31:46.678Z,51.75
2023-04-30T08:34:15.561Z,50.69
2023-04-30T08:36:44.310Z,48.97
2023-04-30T08:39:13.069Z,48.76
2023-04-30T08:41:43.378Z,48.63
2023-04-30T08:44:12.415Z,47.62
2023-04-30T08:46:42.313Z,47.50
2023-04-30T08:49:13.018Z,47.14
2023-04-30T08:51:42.115Z,46.30
2023-04-30T08:54:12.085Z,47.21
2023-04-30T08:56:41.064Z,47.42
2023-04-30T08:59:09.750Z,45.38
2023-04-30T09:01:38.757Z,46.09
2023-04-30T09:04:08.123Z,46.46
2023-04-30T09:06:38.393Z,45.38
2023-04-30T09:09:12.890Z,45.06
2023-04-30T09:11:42.003Z,43.24
2023-04-30T09:14:11.158Z,42.97
2023-04-30T09:16:48.206Z,43.31
2023-04-30T09:19:26.474Z,43.73
2023-04-30T09:21:56.708Z,43.20
2023-04-30T09:24:25.902Z,41.40
2023-04-30T09:26:54.964Z,42.90
2023-04-30T09:29:23.665Z,43.77
2023-04-30T09:31:52.725Z,43.76
2023-04-30T09:34:35.239Z,43.44
2023-04-30T09:37:05.847Z,44.21
2023-04-30T09:39:34.519Z,43.98
2023-04-30T09:42:10.040Z,43.57
2023-04-30T09:44:40.508Z,43.43
2023-04-30T09:47:14.224Z,44.18
2023-04-30T09:49:48.316Z,44.14
2023-04-30T09:52:19.095Z,43.87
2023-04-30T09:54:48.262Z,43.18
2023-04-30T09:57:17.267Z,43.00
2023-04-30T09:59:47.362Z,42.57
2023-04-30T10:02:17.373Z,41.50
2023-04-30T10:04:50.477Z,40.79
2023-04-30T10:07:22.494Z,41.36
2023-04-30T10:09:53.107Z,42.28
2023-04-30T10:12:23.763Z,41.21
2023-04-30T10:14:55.460Z,39.63
2023-04-30T10:17:27.681Z,40.48
2023-04-30T10:20:00.037Z,42.15
2023-04-30T10:22:30.782Z,42.04
2023-04-30T10:25:00.572Z,40.22
2023-04-30T10:27:30.090Z,40.67
2023-04-30T10:30:00.268Z,41.28
2023-04-30T10:32:34.513Z,40.52
2023-04-30T10:35:11.154Z,41.36
2023-04-30T10:37:45.112Z,41.69
2023-04-30T10:40:14.990Z,40.54
2023-04-30T10:42:47.179Z,39.61
2023-04-30T10:45:17.385Z,39.92
2023-04-30T10:47:46.846Z,40.43
2023-04-30T10:50:16.564Z,39.46
2023-04-30T10:52:46.740Z,39.28
2023-04-30T10:55:18.563Z,39.63
2023-04-30T10:57:50.304Z,37.96
2023-04-30T11:00:29.073Z,36.52
2023-04-30T11:02:59.545Z,37.81
2023-04-30T11:05:36.771Z,38.15
2023-04-30T11:08:07.299Z,38.93
2023-04-30T11:10:36.504Z,38.01
2023-04-30T11:13:06.857Z,38.21
2023-04-30T11:15:41.248Z,38.45
2023-04-30T11:18:10.547Z,39.64
2023-04-30T11:20:41.998Z,39.56
2023-04-30T11:23:19.697Z,38.20
2023-04-30T11:25:57.894Z,37.53
2023-04-30T11:28:27.571Z,38.55
2023-04-30T11:30:57.181Z,38.56
2023-04-30T11:33:27.352Z,38.85
2023-04-30T11:35:56.782Z,38.05
2023-04-30T11:38:30.092Z,36.60
2023-04-30T11:40:59.816Z,37.06
2023-04-30T11:43:29.524Z,37.14
2023-04-30T11:46:07.227Z,36.76
2023-04-30T11:48:37.486Z,36.74
2023-04-30T11:51:10.668Z,37.27
2023-04-30T11:53:41.452Z,35.85
2023-04-30T11:56:10.092Z,35.05
2023-04-30T11:58:40.240Z,35.24
2023-04-30T12:01:10.898Z,35.91
2023-04-30T12:03:46.857Z,35.65
2023-04-30T12:06:25.504Z,35.49
2023-04-30T12:08:56.194Z,36.33
2023-04-30T12:11:26.725Z,35.95
2023-04-30T12:13:56.793Z,36.92
2023-04-30T12:16:26.067Z,36.81
2023-04-30T12:18:55.557Z,37.34
2023-04-30T12:21:24.445Z,36.83
2023-04-30T12:23:53.498Z,36.72
2023-04-30T12:26:23.768Z,37.19
2023-04-30T12:28:53.467Z,36.51
2023-04-30T12:31:22.502Z,36.76
2023-04-30T12:33:57.672Z,36.74
2023-04-30T12:36:36.676Z,36.26
2023-04-30T12:39:08.778Z,35.35
2023-04-30T12:41:42.419Z,35.12
2023-04-30T12:44:21.197Z,35.74
2023-04-30T12:46:51.312Z,34.45
2023-04-30T12:49:26.708Z,34.23
2023-04-30T12:52:01.402Z,34.07
2023-04-30T12:54:31.028Z,33.95
2023-04-30T12:57:03.253Z,33.29
2023-04-30T12:59:32.718Z,33.65
2023-04-30T13:02:09.512Z,33.61
2023-04-30T13:04:38.482Z,33.57
2023-04-30T13:07:07.524Z,33.73
2023-04-30T13:09:40.784Z,34.25
2023-04-30T13:12:11.140Z,34.56
2023-04-30T13:14:39.839Z,34.53
2023-04-30T13:17:09.848Z,34.44
2023-04-30T13:19:38.902Z,34.13
2023-04-30T13:22:07.899Z,34.65
2023-04-30T13:24:37.354Z,33.68
2023-04-30T13:27:06.716Z,33.68
2023-04-30T13:29:36.796Z,33.60
2023-04-30T13:32:06.031Z,32.69
2023-04-30T13:34:35.059Z,33.67
2023-04-30T13:37:03.753Z,33.12
2023-04-30T13:39:32.374Z,32.69
2023-04-30T13:42:01.380Z,31.57
2023-04-30T13:44:32.782Z,31.51
2023-04-30T13:47:03.443Z,31.98
2023-04-30T13:49:32.246Z,31.06
2023-04-30T13:52:01.412Z,30.31
2023-04-30T13:54:30.086Z,31.35
2023-04-30T13:56:59.675Z,32.12
2023-04-30T13:59:31.810Z,31.08
2023-04-30T14:02:00.686Z,31.38
2023-04-30T14:04:31.314Z,30.12
2023-04-30T14:07:03.327Z,30.28
2023-04-30T14:09:32.331Z,30.28
2023-04-30T14:12:00.957Z,30.31
2023-04-30T14:14:29.740Z,29.84
2023-04-30T14:16:58.878Z,30.10
2023-04-30T14:19:27.904Z,30.60
2023-04-30T14:21:58.095Z,31.00
2023-04-30T14:24:28.296Z,30.60
2023-04-30T14:26:57.015Z,31.35
2023-04-30T14:29:26.188Z,31.38
2023-04-30T14:31:55.176Z,30.25
2023-04-30T14:34:24.593Z,29.49
2023-04-30T14:36:53.279Z,28.93
2023-04-30T14:39:23.595Z,29.15
2023-04-30T14:41:53.457Z,29.11
2023-04-30T14:44:24.982Z,29.44
2023-04-30T14:46:55.050Z,29.22
2023-04-30T14:49:24.036Z,29.06
2023-04-30T14:51:52.671Z,29.08
2023-04-30T14:54:21.402Z,29.61
2023-04-30T14:56:51.758Z,30.24
2023-04-30T14:59:20.492Z,30.71
2023-04-30T15:01:49.321Z,31.33
2023-04-30T15:04:18.340Z,31.38
2023-04-30T15:06:46.989Z,31.23
2023-04-30T15:09:15.697Z,30.95
2023-04-30T15:11:44.588Z,31.18
2023-04-30T15:14:16.882Z,30.25
2023-04-30T15:16:45.832Z,29.72
2023-04-30T15:19:14.463Z,29.59
2023-04-30T15:21:43.460Z,28.92
2023-04-30T15:24:12.536Z,29.44
2023-04-30T15:26:41.234Z,29.84
2023-04-30T15:29:10.591Z,30.08
2023-04-30T15:31:41.027Z,30.41
2023-04-30T15:34:09.830Z,30.42
2023-04-30T15:36:38.485Z,30.13
2023-04-30T15:39:07.520Z,29.99
2023-04-30T15:41:36.216Z,30.98
2023-04-30T15:44:05.072Z,33.75
2023-04-30T15:46:34.649Z,38.45
2023-04-30T15:49:04.784Z,41.04
2023-04-30T15:51:34.212Z,41.95
2023-04-30T15:54:03.241Z,43.80
2023-04-30T15:56:31.982Z,41.57
2023-04-30T15:59:00.747Z,43.52
2023-04-30T16:01:29.836Z,43.43
2023-04-30T16:04:00.414Z,42.79
2023-04-30T16:06:32.176Z,45.08
2023-04-30T16:09:06.538Z,44.13
2023-04-30T16:11:35.383Z,43.87
2023-04-30T16:14:06.561Z,43.36
2023-04-30T16:16:35.257Z,44.48
2023-04-30T16:19:08.364Z,44.71
2023-04-30T16:21:40.605Z,44.82
2023-04-30T16:24:13.909Z,45.13
2023-04-30T16:26:42.802Z,46.69
2023-04-30T16:29:13.447Z,47.72
2023-04-30T16:31:47.469Z,48.05
2023-04-30T16:34:16.866Z,48.03
2023-04-30T16:36:47.544Z,48.45
2023-04-30T16:39:20.430Z,49.50
2023-04-30T16:41:49.406Z,49.16
2023-04-30T16:44:25.589Z,48.67
2023-04-30T16:46:57.318Z,50.58
2023-04-30T16:49:26.338Z,48.89
2023-04-30T16:51:56.839Z,46.46
2023-04-30T16:54:25.876Z,46.11
2023-04-30T16:56:55.520Z,45.42
2023-04-30T16:59:27.167Z,46.08
2023-04-30T17:01:58.641Z,46.51
2023-04-30T17:04:27.483Z,47.73
2023-04-30T17:06:57.791Z,49.95
2023-04-30T17:09:29.763Z,51.64
2023-04-30T17:11:59.242Z,53.12
2023-04-30T17:14:28.616Z,53.67
2023-04-30T17:16:58.875Z,52.74
2023-04-30T17:19:27.901Z,52.02
2023-04-30T17:21:58.796Z,50.73
2023-04-30T17:24:29.000Z,50.03
2023-04-30T17:26:59.484Z,50.57
2023-04-30T17:29:28.709Z,47.54
2023-04-30T17:31:58.379Z,47.47
2023-04-30T17:34:27.529Z,49.88
2023-04-30T17:37:00.645Z,51.30
2023-04-30T17:39:33.165Z,51.42
2023-04-30T17:42:07.590Z,52.39
2023-04-30T17:44:36.843Z,52.72
2023-04-30T17:47:06.251Z,50.97
2023-04-30T17:49:39.860Z,52.15
2023-04-30T17:52:11.786Z,53.13
2023-04-30T17:54:41.124Z,52.78
2023-04-30T17:57:10.997Z,53.52
2023-04-30T17:59:40.812Z,52.54
2023-04-30T18:02:12.241Z,52.91
2023-04-30T18:04:41.898Z,53.93
2023-04-30T18:07:11.957Z,53.87
2023-04-30T18:09:40.863Z,53.73
2023-04-30T18:12:09.615Z,53.08
2023-04-30T18:14:38.260Z,53.80
2023-04-30T18:17:08.877Z,51.95
2023-04-30T18:19:44.050Z,52.50
2023-04-30T18:22:15.068Z,53.13
2023-04-30T18:24:44.474Z,51.52
2023-04-30T18:27:13.744Z,51.70
2023-04-30T18:29:43.067Z,49.88
2023-04-30T18:32:13.078Z,47.92
2023-04-30T18:34:42.583Z,47.70
2023-04-30T18:37:11.298Z,46.58
2023-04-30T18:39:41.872Z,47.37
2023-04-30T18:42:12.010Z,47.63
2023-04-30T18:44:42.264Z,48.25
2023-04-30T18:47:12.400Z,47.13
2023-04-30T18:49:41.995Z,47.38
2023-04-30T18:52:14.816Z,47.64
2023-04-30T18:54:44.902Z,46.84
2023-04-30T18:57:16.391Z,47.89
2023-04-30T18:59:45.622Z,45.75
2023-04-30T19:02:15.244Z,45.12
2023-04-30T19:04:59.586Z,45.89
2023-04-30T19:07:30.130Z,47.65
2023-04-30T19:10:02.534Z,46.30
2023-04-30T19:12:32.661Z,46.91
2023-04-30T19:15:02.607Z,48.20
2023-04-30T19:17:33.105Z,47.91
2023-04-30T19:20:03.294Z,48.21
2023-04-30T19:22:35.928Z,46.38
2023-04-30T19:25:08.307Z,46.32
2023-04-30T19:27:37.699Z,46.48
2023-04-30T19:30:08.233Z,47.87
2023-04-30T19:32:39.203Z,47.16
2023-04-30T19:35:09.990Z,48.87
2023-04-30T19:37:40.324Z,46.85
2023-04-30T19:40:12.960Z,48.98
2023-04-30T19:42:45.041Z,49.78
2023-04-30T19:45:15.121Z,49.65
2023-04-30T19:47:44.758Z,49.91
2023-04-30T19:50:13.906Z,50.16
2023-04-30T19:52:43.248Z,50.32
2023-04-30T19:55:15.467Z,50.55
2023-04-30T19:57:45.140Z,50.44
2023-04-30T20:00:16.719Z,50.67
2023-04-30T20:02:48.124Z,50.75
2023-04-30T20:05:17.428Z,50.63
2023-04-30T20:07:48.978Z,51.08
2023-04-30T20:10:22.765Z,51.14
2023-04-30T20:12:54.903Z,51.67
2023-04-30T20:15:24.495Z,51.81
2023-04-30T20:17:54.420Z,52.21
2023-04-30T20:20:26.376Z,52.54
2023-04-30T20:22:56.789Z,52.30
2023-04-30T20:25:31.928Z,52.50
2023-04-30T20:28:01.501Z,52.57
2023-04-30T20:30:30.600Z,52.78
2023-04-30T20:32:59.812Z,52.62
2023-04-30T20:35:29.245Z,52.31
2023-04-30T20:37:58.795Z,52.48
2023-04-30T20:40:30.053Z,52.34
2023-04-30T20:42:59.905Z,52.63
2023-04-30T20:45:33.956Z,53.17
2023-04-30T20:48:03.686Z,53.36
2023-04-30T20:50:32.502Z,53.43
2023-04-30T20:53:01.470Z,52.77
2023-04-30T20:55:32.206Z,52.70
2023-04-30T20:58:01.751Z,53.20
2023-04-30T21:00:30.723Z,53.36
2023-04-30T21:02:59.833Z,54.03
2023-04-30T21:05:30.135Z,54.58
2023-04-30T21:08:01.266Z,55.17
2023-04-30T21:10:36.510Z,55.83
2023-04-30T21:13:08.841Z,56.64
2023-04-30T21:15:39.185Z,56.93
2023-04-30T21:18:08.658Z,57.49
2023-04-30T21:20:37.460Z,58.11
2023-04-30T21:23:06.210Z,58.24
2023-04-30T21:25:38.519Z,58.64
2023-04-30T21:28:07.651Z,59.26
2023-04-30T21:30:37.118Z,59.52
2023-04-30T21:33:08.530Z,58.55
2023-04-30T21:35:40.473Z,58.64
2023-04-30T21:38:10.976Z,58.24
2023-04-30T21:40:42.389Z,57.88
2023-04-30T21:43:11.216Z,58.20
2023-04-30T21:45:43.395Z,58.29
2023-04-30T21:48:12.342Z,58.12
2023-04-30T21:50:41.322Z,58.69
2023-04-30T21:53:10.767Z,59.05
2023-04-30T21:55:39.393Z,59.21
2023-04-30T21:58:09.656Z,59.18
2023-04-30T22:00:38.756Z,59.40
2023-04-30T22:03:09.970Z,59.91
2023-04-30T22:05:39.846Z,59.90
2023-04-30T22:08:08.960Z,58.91
2023-04-30T22:10:37.887Z,58.37
2023-04-30T22:13:06.689Z,57.93
2023-04-30T22:15:47.035Z,57.24
2023-04-30T22:18:17.155Z,57.28
2023-04-30T22:20:46.137Z,57.41
2023-04-30T22:23:15.718Z,57.17
2023-04-30T22:25:44.449Z,56.97
2023-04-30T22:28:16.917Z,57.79
2023-04-30T22:30:47.083Z,57.10
2023-04-30T22:33:16.176Z,57.12
2023-04-30T22:35:44.921Z,57.72
2023-04-30T22:38:13.806Z,57.08
2023-04-30T22:40:42.749Z,56.77
2023-04-30T22:43:11.730Z,57.38
2023-04-30T22:45:41.176Z,56.17
2023-04-30T22:48:11.554Z,56.12
2023-04-30T22:50:40.314Z,56.37
2023-04-30T22:53:09.037Z,55.64
2023-04-30T22:55:38.047Z,56.50
2023-04-30T22:58:06.735Z,55.62
2023-04-30T23:00:35.865Z,54.72
2023-04-30T23:03:05.071Z,54.89
2023-04-30T23:05:35.211Z,54.25
2023-04-30T23:08:04.513Z,54.44
2023-04-30T23:10:33.169Z,54.93
2023-04-30T23:13:04.106Z,54.60
2023-04-30T23:15:32.858Z,53.66
2023-04-30T23:18:01.454Z,54.30
2023-04-30T23:20:30.154Z,54.65
2023-04-30T23:23:00.392Z,54.11
2023-04-30T23:25:29.061Z,54.46
2023-04-30T23:27:59.304Z,53.66
2023-04-30T23:30:28.317Z,53.87
2023-04-30T23:32:57.224Z,54.71
2023-04-30T23:35:26.084Z,54.51
2023-04-30T23:37:54.936Z,54.04
2023-04-30T23:40:25.214Z,53.83
2023-04-30T23:42:53.838Z,53.19
2023-04-30T23:45:23.224Z,53.70
2023-04-30T23:47:52.627Z,53.61
2023-04-30T23:50:21.234Z,53.30
2023-04-30T23:52:50.265Z,53.84
2023-04-30T23:55:19.071Z,52.62
2023-04-30T23:57:49.103Z,53.44
